Terminal Aerodrome Forecast
Issued by NWS Cleveland, OH

Home | Current Version | Previous Version | Graphics & Text | Print | Product List | Glossary On
Versions: 1 2 3 4 5 6 7 8 9 10 11 12 13 14 15 16 17 18 19 20 21 22 23 24 25 26
000
FTUS41 KCLE 140533
TAFCLE
TAF
KCLE 140533Z 1406/1512 36007KT P6SM VCSH OVC050
      TEMPO 1406/1408 5SM -SHSN OVC025
     FM140800 VRB03KT P6SM BKN130
     FM141100 VRB03KT P6SM SCT130
     FM150400 15006KT P6SM BKN250=

USA.gov is the U.S. government's official web portal to all federal, state and local government web resources and services.